createdAt,value
2022-07-26T00:00:12.642Z,18.80
2022-07-26T00:02:39.942Z,18.80
2022-07-26T00:05:14.790Z,18.80
2022-07-26T00:07:41.814Z,18.80
2022-07-26T00:10:08.741Z,18.80
2022-07-26T00:12:35.701Z,18.80
2022-07-26T00:15:02.707Z,18.80
2022-07-26T00:17:29.350Z,18.70
2022-07-26T00:19:56.057Z,18.70
2022-07-26T00:22:35.186Z,18.70
2022-07-26T00:25:04.361Z,18.70
2022-07-26T00:27:31.156Z,18.70
2022-07-26T00:29:57.821Z,18.70
2022-07-26T00:32:24.638Z,18.70
2022-07-26T00:34:52.173Z,18.80
2022-07-26T00:37:20.766Z,18.80
2022-07-26T00:39:48.411Z,18.80
2022-07-26T00:42:15.344Z,18.80
2022-07-26T00:44:45.263Z,18.70
2022-07-26T00:47:12.728Z,18.70
2022-07-26T00:49:39.841Z,18.80
2022-07-26T00:52:07.764Z,18.80
2022-07-26T00:54:34.531Z,18.80
2022-07-26T00:57:01.352Z,18.70
2022-07-26T00:59:28.394Z,18.70
2022-07-26T01:01:55.693Z,18.70
2022-07-26T01:04:22.722Z,18.70
2022-07-26T01:06:49.988Z,18.70
2022-07-26T01:09:16.920Z,18.60
2022-07-26T01:11:43.667Z,18.70
2022-07-26T01:14:10.939Z,18.70
2022-07-26T01:16:38.224Z,18.70
2022-07-26T01:19:05.037Z,18.70
2022-07-26T01:21:33.241Z,18.70
2022-07-26T01:24:00.147Z,18.70
2022-07-26T01:26:26.859Z,18.60
2022-07-26T01:28:53.581Z,18.50
2022-07-26T01:31:20.460Z,18.50
2022-07-26T01:33:47.303Z,18.50
2022-07-26T01:36:13.990Z,18.50
2022-07-26T01:38:41.601Z,18.50
2022-07-26T01:41:08.567Z,18.50
2022-07-26T01:43:35.937Z,18.50
2022-07-26T01:46:03.796Z,18.60
2022-07-26T01:48:31.077Z,18.60
2022-07-26T01:50:58.070Z,18.60
2022-07-26T01:53:24.835Z,18.50
2022-07-26T01:55:51.569Z,18.50
2022-07-26T01:58:18.506Z,18.50
2022-07-26T02:00:45.267Z,18.40
2022-07-26T02:03:12.129Z,18.40
2022-07-26T02:05:38.814Z,18.40
2022-07-26T02:08:05.859Z,18.40
2022-07-26T02:10:52.319Z,18.40
2022-07-26T02:13:18.997Z,18.40
2022-07-26T02:15:45.790Z,18.40
2022-07-26T02:18:12.528Z,18.40
2022-07-26T02:20:39.402Z,18.40
2022-07-26T02:23:06.515Z,18.40
2022-07-26T02:25:33.455Z,18.40
2022-07-26T02:28:01.528Z,18.40
2022-07-26T02:30:29.043Z,18.40
2022-07-26T02:32:55.747Z,18.40
2022-07-26T02:35:22.611Z,18.40
2022-07-26T02:37:49.308Z,18.50
2022-07-26T02:40:19.392Z,18.50
2022-07-26T02:42:46.499Z,18.40
2022-07-26T02:45:13.215Z,18.40
2022-07-26T02:47:52.848Z,18.40
2022-07-26T02:50:21.258Z,18.40
2022-07-26T02:52:48.412Z,18.50
2022-07-26T02:55:16.732Z,18.30
2022-07-26T02:57:45.541Z,18.40
2022-07-26T03:00:16.537Z,18.50
2022-07-26T03:02:43.557Z,18.50
2022-07-26T03:05:10.971Z,18.50
2022-07-26T03:07:37.939Z,18.50
2022-07-26T03:10:05.334Z,18.50
2022-07-26T03:12:32.138Z,18.50
2022-07-26T03:14:58.898Z,18.50
2022-07-26T03:17:25.578Z,18.50
2022-07-26T03:19:52.648Z,18.50
2022-07-26T03:22:19.442Z,18.60
2022-07-26T03:24:46.144Z,18.60
2022-07-26T03:27:12.875Z,18.60
2022-07-26T03:29:39.518Z,18.60
2022-07-26T03:32:06.623Z,18.60
2022-07-26T03:34:33.452Z,18.60
2022-07-26T03:37:00.115Z,18.60
2022-07-26T03:39:26.781Z,18.60
2022-07-26T03:41:53.421Z,18.60
2022-07-26T03:44:20.120Z,18.60
2022-07-26T03:46:46.947Z,18.70
2022-07-26T03:49:16.964Z,18.70
2022-07-26T03:51:44.216Z,18.70
2022-07-26T03:54:11.418Z,18.80
2022-07-26T03:56:38.912Z,18.70
2022-07-26T03:59:08.384Z,18.70
2022-07-26T04:01:36.147Z,18.70
2022-07-26T04:04:03.510Z,18.80
2022-07-26T04:06:30.187Z,18.80
2022-07-26T04:08:57.058Z,18.80
2022-07-26T04:11:27.673Z,18.90
2022-07-26T04:13:55.914Z,18.80
2022-07-26T04:16:22.896Z,18.80
2022-07-26T04:18:49.650Z,18.80
2022-07-26T04:21:16.809Z,18.80
2022-07-26T04:23:47.778Z,18.90
2022-07-26T04:26:17.561Z,18.80
2022-07-26T04:28:44.212Z,18.80
2022-07-26T04:31:11.006Z,18.90
2022-07-26T04:33:37.798Z,18.80
2022-07-26T04:36:04.884Z,18.80
2022-07-26T04:38:46.747Z,18.80
2022-07-26T04:41:13.821Z,18.80
2022-07-26T04:43:40.513Z,18.90
2022-07-26T04:46:07.354Z,18.90
2022-07-26T04:48:34.213Z,19.00
2022-07-26T04:51:01.618Z,19.00
2022-07-26T04:53:28.278Z,19.10
2022-07-26T04:55:54.955Z,19.00
2022-07-26T04:58:21.598Z,19.00
2022-07-26T05:01:08.876Z,19.00
2022-07-26T05:03:35.055Z,19.10
2022-07-26T05:06:01.696Z,19.00
2022-07-26T05:08:28.292Z,19.00
2022-07-26T05:10:56.104Z,19.00
2022-07-26T05:13:23.214Z,19.00
2022-07-26T05:15:56.942Z,19.10
2022-07-26T05:18:23.587Z,19.00
2022-07-26T05:20:51.412Z,19.00
2022-07-26T05:23:18.356Z,18.90
2022-07-26T05:25:45.012Z,18.90
2022-07-26T05:28:11.701Z,18.90
2022-07-26T05:30:38.473Z,18.90
2022-07-26T05:33:05.346Z,18.90
2022-07-26T05:35:32.017Z,18.90
2022-07-26T05:37:59.227Z,18.90
2022-07-26T05:40:26.002Z,18.90
2022-07-26T05:42:52.740Z,18.90
2022-07-26T05:45:19.474Z,18.90
2022-07-26T05:47:49.764Z,19.00
2022-07-26T05:50:16.419Z,19.00
2022-07-26T05:52:43.149Z,19.00
2022-07-26T05:55:10.047Z,19.00
2022-07-26T05:57:36.810Z,19.00
2022-07-26T06:00:05.346Z,18.80
2022-07-26T06:02:32.787Z,18.60
2022-07-26T06:04:59.502Z,18.50
2022-07-26T06:07:26.163Z,18.40
2022-07-26T06:09:52.866Z,18.50
2022-07-26T06:12:19.650Z,18.50
2022-07-26T06:14:46.340Z,18.40
2022-07-26T06:17:13.151Z,18.50
2022-07-26T06:19:43.031Z,18.40
2022-07-26T06:22:12.423Z,18.40
2022-07-26T06:24:39.087Z,18.50
2022-07-26T06:27:06.066Z,18.60
2022-07-26T06:29:33.447Z,18.60
2022-07-26T06:32:00.368Z,18.50
2022-07-26T06:34:27.287Z,18.40
2022-07-26T06:36:53.961Z,18.40
2022-07-26T06:39:20.726Z,18.30
2022-07-26T06:41:47.525Z,18.30
2022-07-26T06:44:14.209Z,18.30
2022-07-26T06:46:40.848Z,18.30
2022-07-26T06:49:07.637Z,18.30
2022-07-26T06:51:34.595Z,18.50
2022-07-26T06:54:01.650Z,18.60
2022-07-26T06:56:28.469Z,18.80
2022-07-26T06:58:56.278Z,18.80
2022-07-26T07:01:55.550Z,18.90
2022-07-26T07:04:10.048Z,18.90
2022-07-26T07:06:37.027Z,18.90
2022-07-26T07:09:03.825Z,18.70
2022-07-26T07:11:33.315Z,18.60
2022-07-26T07:14:03.022Z,18.40
2022-07-26T07:16:29.821Z,18.10
2022-07-26T07:18:56.501Z,18.00
2022-07-26T07:21:23.136Z,17.90
2022-07-26T07:23:49.827Z,17.80
2022-07-26T07:26:16.762Z,17.60
2022-07-26T07:28:43.392Z,17.50
2022-07-26T07:31:10.192Z,17.40
2022-07-26T07:33:52.750Z,17.20
2022-07-26T07:36:20.988Z,17.20
2022-07-26T07:38:49.109Z,17.20
2022-07-26T07:41:16.354Z,17.10
2022-07-26T07:43:43.018Z,17.10
2022-07-26T07:46:09.762Z,17.10
2022-07-26T07:48:38.722Z,17.20
2022-07-26T07:51:08.825Z,17.30
2022-07-26T07:53:35.557Z,17.40
2022-07-26T07:56:02.557Z,17.60
2022-07-26T07:58:29.193Z,17.70
2022-07-26T08:00:55.980Z,17.80
2022-07-26T08:03:22.617Z,17.80
2022-07-26T08:05:50.570Z,17.90
2022-07-26T08:08:18.910Z,17.90
2022-07-26T08:10:52.294Z,17.80
2022-07-26T08:13:21.392Z,17.80
2022-07-26T08:15:52.881Z,17.80
2022-07-26T08:18:22.562Z,17.80
2022-07-26T08:20:51.095Z,17.90
2022-07-26T08:23:18.094Z,18.00
2022-07-26T08:25:55.753Z,17.80
2022-07-26T08:31:10.478Z,17.70
2022-07-26T08:33:37.450Z,17.70
2022-07-26T08:36:08.017Z,17.70
2022-07-26T08:38:34.832Z,17.70
2022-07-26T08:41:01.481Z,17.60
2022-07-26T08:43:29.189Z,17.60
2022-07-26T08:46:03.062Z,17.60
2022-07-26T08:48:30.025Z,17.60
2022-07-26T08:50:56.952Z,17.60
2022-07-26T08:53:24.307Z,17.60
2022-07-26T08:56:06.816Z,17.70
2022-07-26T08:58:35.753Z,17.70
2022-07-26T09:01:08.106Z,17.80
2022-07-26T09:03:37.918Z,18.00
2022-07-26T09:06:18.147Z,18.20
2022-07-26T09:08:46.922Z,18.40
2022-07-26T09:11:32.342Z,18.60
2022-07-26T09:14:06.375Z,18.60
2022-07-26T09:16:37.304Z,18.70
2022-07-26T09:19:21.312Z,18.80
2022-07-26T09:21:48.201Z,18.60
2022-07-26T09:24:31.284Z,18.50
2022-07-26T09:26:59.869Z,18.50
2022-07-26T09:29:28.515Z,18.50
2022-07-26T09:32:15.375Z,18.60
2022-07-26T09:34:52.597Z,18.60
2022-07-26T09:37:33.708Z,18.60
2022-07-26T09:40:04.128Z,18.70
2022-07-26T09:42:30.958Z,18.80
2022-07-26T09:44:58.576Z,18.90
2022-07-26T09:47:43.153Z,19.10
2022-07-26T09:50:31.532Z,19.20
2022-07-26T09:53:13.279Z,19.30
2022-07-26T09:55:46.027Z,19.30
2022-07-26T10:03:08.992Z,19.60
2022-07-26T11:50:14.019Z,20.10
2022-07-26T11:52:41.001Z,23.80
2022-07-26T11:55:08.574Z,23.50
2022-07-26T11:57:35.301Z,23.10
2022-07-26T12:00:02.499Z,22.90
2022-07-26T12:02:30.505Z,22.70
2022-07-26T12:05:16.364Z,22.70
2022-07-26T12:08:00.972Z,22.80
2022-07-26T12:10:28.140Z,22.50
2022-07-26T12:13:15.996Z,22.50
2022-07-26T12:15:51.294Z,22.50
2022-07-26T12:18:26.213Z,22.60
2022-07-26T12:21:05.779Z,22.80
2022-07-26T12:23:45.198Z,22.70
2022-07-26T12:26:30.719Z,22.70
2022-07-26T12:29:18.626Z,23.00
2022-07-26T12:31:46.372Z,23.10
2022-07-26T12:34:20.716Z,23.20
2022-07-26T12:36:47.557Z,23.30
2022-07-26T12:39:24.084Z,23.30
2022-07-26T12:41:54.696Z,23.60
2022-07-26T12:44:23.007Z,23.40
2022-07-26T12:46:49.828Z,23.50
2022-07-26T12:49:17.147Z,23.90
2022-07-26T12:51:44.855Z,24.10
2022-07-26T12:54:11.917Z,24.10
2022-07-26T12:56:38.820Z,24.00
2022-07-26T12:59:06.133Z,23.90
2022-07-26T13:01:33.037Z,23.90
2022-07-26T13:04:00.414Z,23.90
2022-07-26T13:06:27.274Z,23.80
2022-07-26T13:08:54.038Z,23.80
2022-07-26T13:11:20.892Z,24.00
2022-07-26T13:13:47.647Z,23.90
2022-07-26T13:16:14.317Z,24.00
2022-07-26T13:18:41.001Z,24.10
2022-07-26T13:21:07.886Z,23.80
2022-07-26T13:23:35.654Z,23.70
2022-07-26T13:26:03.479Z,23.60
2022-07-26T13:28:30.821Z,23.60
2022-07-26T13:30:57.727Z,23.70
2022-07-26T13:33:24.444Z,23.70
2022-07-26T13:35:51.109Z,23.90
2022-07-26T13:38:19.683Z,23.70
2022-07-26T13:40:46.378Z,23.90
2022-07-26T13:43:13.141Z,24.30
2022-07-26T13:45:40.149Z,24.80
2022-07-26T13:48:07.347Z,25.30
2022-07-26T13:50:34.257Z,25.70
2022-07-26T13:53:01.092Z,25.50
2022-07-26T13:55:27.900Z,25.50
2022-07-26T13:57:57.524Z,24.90
2022-07-26T14:00:29.253Z,24.60
2022-07-26T14:02:58.502Z,24.30
2022-07-26T14:05:26.454Z,24.40
2022-07-26T14:07:54.002Z,24.10
2022-07-26T14:10:21.879Z,23.90
2022-07-26T14:12:48.962Z,23.70
2022-07-26T14:15:21.679Z,23.40
2022-07-26T14:17:50.232Z,23.20
2022-07-26T14:20:17.425Z,23.20
2022-07-26T14:22:44.734Z,23.10
2022-07-26T14:25:11.731Z,23.10
2022-07-26T14:27:38.564Z,23.10
2022-07-26T14:30:06.109Z,23.20
2022-07-26T14:32:32.916Z,23.20
2022-07-26T14:34:59.542Z,23.20
2022-07-26T14:37:42.765Z,23.30
2022-07-26T14:40:13.142Z,23.20
2022-07-26T14:42:40.044Z,23.30
2022-07-26T14:45:07.771Z,23.50
2022-07-26T14:47:34.429Z,23.70
2022-07-26T14:50:06.271Z,23.80
2022-07-26T14:52:33.862Z,23.60
2022-07-26T14:55:00.546Z,23.60
2022-07-26T14:57:27.368Z,23.60
2022-07-26T14:59:54.019Z,23.40
2022-07-26T15:02:20.856Z,23.30
2022-07-26T15:04:47.639Z,23.20
2022-07-26T15:07:14.438Z,23.10
2022-07-26T15:09:41.220Z,23.30
2022-07-26T15:12:08.173Z,23.30
2022-07-26T15:14:36.959Z,23.70
2022-07-26T15:17:03.787Z,24.20
2022-07-26T15:19:30.492Z,24.60
2022-07-26T15:21:58.835Z,25.30
2022-07-26T15:24:27.022Z,25.60
2022-07-26T15:26:53.820Z,25.70
2022-07-26T15:29:20.541Z,25.80
2022-07-26T15:31:48.520Z,25.50
2022-07-26T15:34:15.747Z,25.00
2022-07-26T15:36:42.834Z,24.80
2022-07-26T15:39:18.151Z,24.70
2022-07-26T15:41:47.177Z,24.50
2022-07-26T15:44:17.163Z,24.30
2022-07-26T15:46:45.819Z,24.10
2022-07-26T15:49:15.860Z,24.10
2022-07-26T15:51:43.408Z,24.40
2022-07-26T15:54:12.640Z,24.30
2022-07-26T15:56:39.993Z,24.20
2022-07-26T15:59:07.202Z,24.30
2022-07-26T16:01:34.702Z,24.90
2022-07-26T16:04:01.532Z,26.00
2022-07-26T16:06:28.478Z,26.90
2022-07-26T16:09:15.154Z,27.30
2022-07-26T16:11:41.824Z,27.60
2022-07-26T16:14:08.635Z,27.60
2022-07-26T16:16:35.332Z,27.00
2022-07-26T16:19:01.987Z,26.90
2022-07-26T16:21:28.748Z,27.40
2022-07-26T16:23:55.420Z,27.60
2022-07-26T16:26:23.360Z,27.10
2022-07-26T16:28:50.085Z,26.40
2022-07-26T16:31:17.100Z,25.80
2022-07-26T16:33:46.558Z,25.60
2022-07-26T16:36:14.098Z,25.40
2022-07-26T16:38:41.067Z,25.10
2022-07-26T16:41:07.903Z,24.90
2022-07-26T16:43:35.303Z,24.70
2022-07-26T16:46:02.432Z,24.50
2022-07-26T16:48:29.246Z,24.30
2022-07-26T16:50:56.392Z,24.30
2022-07-26T16:53:23.203Z,24.20
2022-07-26T16:55:51.775Z,24.00
2022-07-26T16:58:19.226Z,23.80
2022-07-26T17:00:46.684Z,23.70
2022-07-26T17:03:15.758Z,23.60
2022-07-26T17:05:43.723Z,23.30
2022-07-26T17:08:10.806Z,23.20
2022-07-26T17:10:37.883Z,23.10
2022-07-26T17:13:04.815Z,23.00
2022-07-26T17:15:31.491Z,23.00
2022-07-26T17:17:58.185Z,23.00
2022-07-26T17:20:24.963Z,22.90
2022-07-26T17:22:51.758Z,23.00
2022-07-26T17:25:18.431Z,22.90
2022-07-26T17:27:45.256Z,22.80
2022-07-26T17:30:12.508Z,22.80
2022-07-26T17:32:39.718Z,22.70
2022-07-26T17:35:07.658Z,22.70
2022-07-26T17:37:34.990Z,22.70
2022-07-26T17:40:03.568Z,22.60
2022-07-26T17:42:30.416Z,22.50
2022-07-26T17:44:57.374Z,22.50
2022-07-26T17:47:29.149Z,22.50
2022-07-26T17:50:09.065Z,22.50
2022-07-26T17:52:41.721Z,22.50
2022-07-26T17:55:08.767Z,22.70
2022-07-26T17:57:35.453Z,22.50
2022-07-26T18:00:06.358Z,22.50
2022-07-26T18:02:33.514Z,22.40
2022-07-26T18:05:00.239Z,22.30
2022-07-26T18:07:27.178Z,22.20
2022-07-26T18:09:53.922Z,22.20
2022-07-26T18:12:20.712Z,22.00
2022-07-26T18:14:47.376Z,22.00
2022-07-26T18:17:14.043Z,22.00
2022-07-26T18:19:40.792Z,22.00
2022-07-26T18:22:08.185Z,22.10
2022-07-26T18:24:34.909Z,22.20
2022-07-26T18:27:01.619Z,22.10
2022-07-26T18:29:28.348Z,22.00
2022-07-26T18:31:58.512Z,21.90
2022-07-26T18:34:25.197Z,21.90
2022-07-26T18:36:51.941Z,21.80
2022-07-26T18:39:18.974Z,21.70
2022-07-26T18:41:45.647Z,21.70
2022-07-26T18:44:13.015Z,21.80
2022-07-26T18:46:39.983Z,21.90
2022-07-26T18:49:07.445Z,21.80
2022-07-26T18:51:34.242Z,21.80
2022-07-26T18:54:02.031Z,21.80
2022-07-26T18:56:29.048Z,21.70
2022-07-26T18:58:56.779Z,21.70
2022-07-26T19:01:23.546Z,21.70
2022-07-26T19:03:50.372Z,21.60
2022-07-26T19:06:17.139Z,21.50
2022-07-26T19:08:43.912Z,21.40
2022-07-26T19:11:11.138Z,21.30
2022-07-26T19:13:38.584Z,21.20
2022-07-26T19:16:05.662Z,21.10
2022-07-26T19:18:33.006Z,21.00
2022-07-26T19:20:59.661Z,20.90
2022-07-26T19:23:27.023Z,20.80
2022-07-26T19:25:53.696Z,20.80
2022-07-26T19:28:20.610Z,20.70
2022-07-26T19:30:47.321Z,20.80
2022-07-26T19:33:14.255Z,20.90
2022-07-26T19:35:40.924Z,20.90
2022-07-26T19:38:07.603Z,20.90
2022-07-26T19:43:18.543Z,20.70
2022-07-26T19:45:45.599Z,20.60
2022-07-26T19:48:14.267Z,20.60
2022-07-26T19:50:41.429Z,20.60
2022-07-26T19:53:08.487Z,20.50
2022-07-26T19:55:38.609Z,20.50
2022-07-26T19:58:05.340Z,20.30
2022-07-26T20:00:32.152Z,20.30
2022-07-26T20:02:59.031Z,20.20
2022-07-26T20:05:25.814Z,20.20
2022-07-26T20:07:52.980Z,20.10
2022-07-26T20:10:19.712Z,20.20
2022-07-26T20:12:46.447Z,20.20
2022-07-26T20:15:14.373Z,20.20
2022-07-26T20:17:41.342Z,20.20
2022-07-26T20:20:09.737Z,20.00
2022-07-26T20:22:36.922Z,19.90
2022-07-26T20:25:04.287Z,19.90
2022-07-26T20:27:31.215Z,19.80
2022-07-26T20:30:01.154Z,19.60
2022-07-26T20:32:28.197Z,19.40
2022-07-26T20:34:54.912Z,19.30
2022-07-26T20:37:21.622Z,19.30
2022-07-26T20:39:48.307Z,19.20
2022-07-26T20:42:21.819Z,19.10
2022-07-26T20:44:49.084Z,19.00
2022-07-26T20:47:15.918Z,19.00
2022-07-26T20:49:42.620Z,18.90
2022-07-26T20:52:09.462Z,18.80
2022-07-26T20:54:36.225Z,18.80
2022-07-26T20:57:04.287Z,18.80
2022-07-26T20:59:32.261Z,18.80
2022-07-26T21:01:59.027Z,18.70
2022-07-26T21:04:25.934Z,18.80
2022-07-26T21:06:53.007Z,18.80
2022-07-26T21:09:19.863Z,18.80
2022-07-26T21:11:46.863Z,18.70
2022-07-26T21:14:13.648Z,18.80
2022-07-26T21:16:40.445Z,18.90
2022-07-26T21:19:07.406Z,18.90
2022-07-26T21:21:34.676Z,19.00
2022-07-26T21:24:01.349Z,19.20
2022-07-26T21:26:28.527Z,19.20
2022-07-26T21:28:58.339Z,19.20
2022-07-26T21:31:25.177Z,19.30
2022-07-26T21:33:52.532Z,19.30
2022-07-26T21:36:19.354Z,19.30
2022-07-26T21:38:46.105Z,19.40
2022-07-26T21:41:13.421Z,19.40
2022-07-26T21:43:40.488Z,19.40
2022-07-26T21:46:12.183Z,19.50
2022-07-26T21:48:39.964Z,19.40
2022-07-26T21:51:08.038Z,19.30
2022-07-26T21:53:34.779Z,19.20
2022-07-26T21:56:01.651Z,19.20
2022-07-26T21:58:28.727Z,19.10
2022-07-26T22:01:06.200Z,19.10
2022-07-26T22:03:35.510Z,19.00
2022-07-26T22:06:02.418Z,19.00
2022-07-26T22:08:29.113Z,19.00
2022-07-26T22:10:56.375Z,19.00
2022-07-26T22:13:23.322Z,19.00
2022-07-26T22:15:50.374Z,19.00
2022-07-26T22:18:19.612Z,19.00
2022-07-26T22:20:49.811Z,19.00
2022-07-26T22:23:18.071Z,19.00
2022-07-26T22:25:45.263Z,19.10
2022-07-26T22:28:17.972Z,19.10
2022-07-26T22:30:46.041Z,19.10
2022-07-26T22:33:12.756Z,19.00
2022-07-26T22:35:39.577Z,19.00
2022-07-26T22:38:09.092Z,19.10
2022-07-26T22:40:36.395Z,19.10
2022-07-26T22:43:06.584Z,19.00
2022-07-26T22:45:33.764Z,19.00
2022-07-26T22:48:03.182Z,18.90
2022-07-26T22:50:30.547Z,18.90
2022-07-26T22:52:57.277Z,19.00
2022-07-26T22:55:24.322Z,19.00
2022-07-26T22:57:51.189Z,18.90
2022-07-26T23:00:19.937Z,18.90
2022-07-26T23:02:47.357Z,18.90
2022-07-26T23:05:15.747Z,18.90
2022-07-26T23:07:43.606Z,18.90
2022-07-26T23:10:14.768Z,18.90
2022-07-26T23:12:41.452Z,18.90
2022-07-26T23:15:10.532Z,18.80
2022-07-26T23:17:37.695Z,18.80
2022-07-26T23:20:08.883Z,18.70
2022-07-26T23:22:35.674Z,18.70
2022-07-26T23:25:02.374Z,18.70
2022-07-26T23:27:29.118Z,18.60
2022-07-26T23:29:55.786Z,18.60
2022-07-26T23:32:22.504Z,18.60
2022-07-26T23:34:49.137Z,18.50
2022-07-26T23:37:15.898Z,18.50
2022-07-26T23:39:42.713Z,18.60
2022-07-26T23:42:09.432Z,18.60
2022-07-26T23:44:36.202Z,18.60
2022-07-26T23:47:02.917Z,18.60
2022-07-26T23:49:29.943Z,18.60
2022-07-26T23:51:56.599Z,18.50
2022-07-26T23:54:23.366Z,18.50
2022-07-26T23:56:50.063Z,18.50
2022-07-26T23:59:16.973Z,18.40
